createdAt,value
2018-11-21T00:00:24.574Z,100116.79
2018-11-21T00:05:28.216Z,100124.72
2018-11-21T00:10:31.807Z,100115.02
2018-11-21T00:15:35.290Z,100133.91
2018-11-21T00:20:38.790Z,100120.94
2018-11-21T00:25:42.281Z,100113.84
2018-11-21T00:30:45.789Z,100115.77
2018-11-21T00:35:49.305Z,100110.01
2018-11-21T00:40:52.816Z,100115.30
2018-11-21T00:45:56.338Z,100120.52
2018-11-21T00:50:59.832Z,100126.92
2018-11-21T00:56:03.341Z,100128.84
2018-11-21T01:01:06.953Z,100127.98
2018-11-21T01:06:10.422Z,100133.48
2018-11-21T01:11:13.913Z,100131.16
2018-11-21T01:16:17.392Z,100137.46
2018-11-21T01:21:20.890Z,100137.46
2018-11-21T01:26:24.392Z,100140.34
2018-11-21T01:31:28.204Z,100140.09
2018-11-21T01:36:31.709Z,100132.22
2018-11-21T01:41:35.208Z,100134.77
2018-11-21T01:46:38.716Z,100147.92
2018-11-21T01:51:42.188Z,100142.30
2018-11-21T01:56:45.699Z,100132.10
2018-11-21T02:01:49.182Z,100145.41
2018-11-21T02:06:52.708Z,100145.97
2018-11-21T02:11:56.205Z,100145.23
2018-11-21T02:16:59.747Z,100141.38
2018-11-21T02:22:03.243Z,100148.70
2018-11-21T02:27:06.738Z,100148.34
2018-11-21T02:32:10.212Z,100144.90
2018-11-21T02:37:13.716Z,100141.66
2018-11-21T02:42:17.187Z,100148.09
2018-11-21T02:47:20.704Z,100146.37
2018-11-21T02:52:24.259Z,100150.59
2018-11-21T02:57:37.239Z,100151.08
2018-11-21T03:02:40.752Z,100156.56
2018-11-21T03:08:09.011Z,100163.73
2018-11-21T03:13:12.470Z,100161.24
2018-11-21T03:18:15.960Z,100158.55
2018-11-21T03:23:19.406Z,100144.36
2018-11-21T03:28:22.885Z,100147.65
2018-11-21T03:33:26.367Z,100145.52
2018-11-21T03:38:29.827Z,100150.53
2018-11-21T03:43:33.369Z,100147.09
2018-11-21T03:48:36.838Z,100150.83
2018-11-21T03:53:40.272Z,100162.06
2018-11-21T03:58:43.764Z,100158.25
2018-11-21T04:03:47.229Z,100164.11
2018-11-21T04:08:50.742Z,100168.70
2018-11-21T04:13:54.517Z,100168.22
2018-11-21T04:18:58.020Z,100166.13
2018-11-21T04:24:01.462Z,100174.78
2018-11-21T04:29:04.974Z,100173.92
2018-11-21T04:34:08.500Z,100181.58
2018-11-21T04:39:12.669Z,100181.31
2018-11-21T04:44:16.139Z,100188.94
2018-11-21T04:49:19.829Z,100194.80
2018-11-21T04:54:23.436Z,100198.83
2018-11-21T04:59:27.009Z,100197.01
2018-11-21T05:04:30.734Z,100204.80
2018-11-21T05:09:34.472Z,100198.56
2018-11-21T05:14:38.102Z,100191.14
2018-11-21T05:19:41.992Z,100196.93
2018-11-21T05:24:45.697Z,100207.84
2018-11-21T05:29:49.347Z,100217.80
2018-11-21T05:34:53.011Z,100215.23
2018-11-21T05:39:56.512Z,100215.23
2018-11-21T05:45:00.087Z,100230.69
2018-11-21T05:50:03.857Z,100236.70
2018-11-21T05:55:07.446Z,100238.45
2018-11-21T06:00:13.906Z,100242.27
2018-11-21T06:05:16.333Z,100247.45
2018-11-21T06:10:19.817Z,100256.27
2018-11-21T06:15:23.279Z,100261.46
2018-11-21T06:20:26.803Z,100266.25
2018-11-21T06:25:30.199Z,100272.86
2018-11-21T06:30:33.954Z,100283.05
2018-11-21T06:35:37.483Z,100298.59
2018-11-21T06:40:40.971Z,100303.97
2018-11-21T06:45:44.464Z,100294.94
2018-11-21T06:50:49.120Z,100301.55
2018-11-21T06:55:52.690Z,100307.83
2018-11-21T07:00:56.375Z,100315.89
2018-11-21T07:05:59.810Z,100319.44
2018-11-21T07:11:03.720Z,100326.16
2018-11-21T07:16:07.189Z,100328.37
2018-11-21T07:21:11.251Z,100326.43
2018-11-21T07:26:14.744Z,100326.43
2018-11-21T07:31:18.644Z,100341.23
2018-11-21T07:36:22.271Z,100351.88
2018-11-21T07:41:25.703Z,100356.88
2018-11-21T07:46:29.313Z,100364.95
2018-11-21T07:51:33.026Z,100371.49
2018-11-21T07:57:18.591Z,100370.22
2018-11-21T08:02:26.749Z,100371.56
2018-11-21T08:07:44.051Z,100378.59
2018-11-21T08:13:05.217Z,100375.03
2018-11-21T08:18:26.734Z,100386.28
2018-11-21T08:23:40.668Z,100389.26
2018-11-21T08:28:44.157Z,100389.75
2018-11-21T08:33:47.623Z,100388.17
2018-11-21T08:38:51.259Z,100384.62
2018-11-21T08:48:58.249Z,100387.64
2018-11-21T08:54:01.772Z,100382.48
2018-11-21T08:59:05.611Z,100390.56
2018-11-21T09:04:09.605Z,100389.94
2018-11-21T09:09:13.072Z,100405.60
2018-11-21T09:14:16.600Z,100404.77
2018-11-21T09:19:20.143Z,100407.35
2018-11-21T09:24:23.611Z,100417.25
2018-11-21T09:29:27.174Z,100421.88
2018-11-21T09:40:13.576Z,100431.02
2018-11-21T09:45:18.480Z,100426.81
2018-11-21T09:50:23.810Z,100421.86
2018-11-21T09:55:27.229Z,100432.75
2018-11-21T10:01:07.397Z,100431.55
2018-11-21T10:06:16.323Z,100445.47
2018-11-21T10:11:20.320Z,100444.41
2018-11-21T10:16:23.824Z,100436.27
2018-11-21T10:21:29.082Z,100445.59
2018-11-21T10:26:32.636Z,100445.11
2018-11-21T10:31:36.144Z,100440.69
2018-11-21T10:36:39.665Z,100438.75
2018-11-21T10:41:43.187Z,100440.67
2018-11-21T10:46:46.763Z,100439.79
2018-11-21T10:51:50.288Z,100446.42
2018-11-21T10:56:54.434Z,100438.66
2018-11-21T11:02:29.058Z,100444.79
2018-11-21T11:07:50.190Z,100442.41
2018-11-21T11:13:24.843Z,100445.27
2018-11-21T11:18:38.535Z,100449.88
2018-11-21T11:24:05.213Z,100439.41
2018-11-21T11:29:19.598Z,100437.11
2018-11-21T11:34:40.720Z,100434.22
2018-11-21T11:40:02.266Z,100444.20
2018-11-21T11:45:24.474Z,100441.06
2018-11-21T11:50:52.807Z,100460.55
2018-11-21T11:56:30.366Z,100469.47
2018-11-21T12:02:13.402Z,100465.75
2018-11-21T12:07:33.812Z,100466.52
2018-11-21T12:12:54.924Z,100459.98
2018-11-21T12:18:16.256Z,100462.95
2018-11-21T12:23:27.762Z,100462.09
2018-11-21T12:28:56.112Z,100454.51
2018-11-21T12:34:17.172Z,100457.58
2018-11-21T12:39:52.013Z,100450.19
2018-11-21T12:45:17.208Z,100442.22
2018-11-21T12:50:48.803Z,100438.56
2018-11-21T12:56:01.876Z,100435.66
2018-11-21T13:01:36.639Z,100434.31
2018-11-21T13:07:11.475Z,100432.41
2018-11-21T13:12:40.813Z,100439.14
2018-11-21T13:18:09.297Z,100436.61
2018-11-21T13:23:33.471Z,100438.44
2018-11-21T13:28:54.773Z,100447.37
2018-11-21T13:34:22.910Z,100442.85
2018-11-21T13:39:38.305Z,100447.78
2018-11-21T13:44:59.634Z,100454.09
2018-11-21T13:50:22.204Z,100449.50
2018-11-21T13:55:25.660Z,100450.92
2018-11-21T14:00:29.205Z,100455.17
2018-11-21T14:05:32.698Z,100456.79
2018-11-21T14:10:36.239Z,100460.55
2018-11-21T14:15:39.711Z,100460.93
2018-11-21T14:20:43.137Z,100469.11
2018-11-21T14:25:46.704Z,100474.86
2018-11-21T14:30:50.187Z,100478.63
2018-11-21T14:35:56.159Z,100477.94
2018-11-21T14:40:57.323Z,100474.00
2018-11-21T14:46:01.013Z,100476.31
2018-11-21T14:51:04.512Z,100486.22
2018-11-21T14:56:08.091Z,100486.48
2018-11-21T15:01:11.659Z,100495.91
2018-11-21T15:06:15.129Z,100497.24
2018-11-21T15:11:18.589Z,100499.45
2018-11-21T15:16:22.087Z,100501.17
2018-11-21T15:21:25.560Z,100500.22
2018-11-21T15:26:29.033Z,100500.22
2018-11-21T15:31:32.567Z,100506.39
2018-11-21T15:36:36.021Z,100509.63
2018-11-21T15:41:40.103Z,100513.59
2018-11-21T15:46:45.777Z,100513.59
2018-11-21T15:51:47.085Z,100513.67
2018-11-21T15:56:50.593Z,100511.56
2018-11-21T16:01:54.393Z,100514.92
2018-11-21T16:06:58.019Z,100519.92
2018-11-21T16:12:01.768Z,100527.98
2018-11-21T16:17:05.481Z,100532.22
2018-11-21T16:22:08.984Z,100535.78
2018-11-21T16:27:12.639Z,100535.47
2018-11-21T16:32:16.068Z,100539.91
2018-11-21T16:37:19.591Z,100546.73
2018-11-21T16:42:23.106Z,100552.19
2018-11-21T16:47:26.745Z,100548.74
2018-11-21T16:52:30.378Z,100553.36
2018-11-21T16:57:33.967Z,100561.70
2018-11-21T17:02:37.527Z,100575.73
2018-11-21T17:07:41.483Z,100574.59
2018-11-21T17:12:45.462Z,100579.50
2018-11-21T17:17:49.206Z,100579.59
2018-11-21T17:22:53.936Z,100580.43
2018-11-21T17:27:57.394Z,100580.30
2018-11-21T17:33:00.937Z,100589.50
2018-11-21T17:38:04.478Z,100597.26
2018-11-21T17:43:08.080Z,100602.23
2018-11-21T17:48:11.518Z,100600.18
2018-11-21T17:53:15.066Z,100597.17
2018-11-21T17:58:18.531Z,100597.47
2018-11-21T18:03:22.026Z,100607.17
2018-11-21T18:08:25.542Z,100608.33
2018-11-21T18:13:29.033Z,100606.95
2018-11-21T18:18:32.511Z,100610.70
2018-11-21T18:23:35.963Z,100618.70
2018-11-21T18:28:39.396Z,100616.23
2018-11-21T18:33:42.901Z,100615.83
2018-11-21T18:38:46.413Z,100616.61
2018-11-21T18:43:49.914Z,100618.14
2018-11-21T18:48:53.464Z,100621.19
2018-11-21T18:53:56.962Z,100627.32
2018-11-21T18:59:12.456Z,100630.31
2018-11-21T19:04:15.979Z,100632.64
2018-11-21T19:09:19.546Z,100638.92
2018-11-21T19:14:23.143Z,100640.72
2018-11-21T19:19:26.684Z,100646.30
2018-11-21T19:24:30.253Z,100645.36
2018-11-21T19:29:33.862Z,100647.01
2018-11-21T19:34:37.358Z,100649.08
2018-11-21T19:39:40.781Z,100644.58
2018-11-21T19:49:47.013Z,100654.28
2018-11-21T19:54:50.559Z,100654.58
2018-11-21T19:59:54.015Z,100651.02
2018-11-21T20:04:57.551Z,100655.81
2018-11-21T20:10:01.194Z,100648.14
2018-11-21T20:15:04.955Z,100652.96
2018-11-21T20:20:11.444Z,100651.34
2018-11-21T20:25:16.307Z,100648.70
2018-11-21T20:30:21.543Z,100640.34
2018-11-21T20:35:26.988Z,100647.95
2018-11-21T20:40:32.170Z,100639.59
2018-11-21T20:45:35.690Z,100646.70
2018-11-21T20:50:39.155Z,100650.37
2018-11-21T20:55:43.215Z,100649.78
2018-11-21T21:00:46.719Z,100656.73
2018-11-21T21:05:50.223Z,100656.73
2018-11-21T21:10:53.944Z,100658.81
2018-11-21T21:15:57.384Z,100654.70
2018-11-21T21:21:00.864Z,100657.48
2018-11-21T21:26:04.399Z,100651.23
2018-11-21T21:31:07.942Z,100660.28
2018-11-21T21:36:11.349Z,100653.83
2018-11-21T21:41:14.832Z,100657.49
2018-11-21T21:46:18.349Z,100656.63
2018-11-21T21:51:21.853Z,100660.84
2018-11-21T21:56:25.470Z,100664.58
2018-11-21T22:01:28.909Z,100660.16
2018-11-21T22:06:32.377Z,100659.68
2018-11-21T22:11:35.848Z,100673.63
2018-11-21T22:16:39.577Z,100671.00
2018-11-21T22:21:43.137Z,100677.73
2018-11-21T22:26:46.803Z,100672.08
2018-11-21T22:31:50.315Z,100676.11
2018-11-21T22:36:53.964Z,100677.73
2018-11-21T22:41:57.597Z,100679.95
2018-11-21T22:47:01.114Z,100670.63
2018-11-21T22:52:04.636Z,100666.70
2018-11-21T22:57:08.125Z,100670.32
2018-11-21T23:02:12.172Z,100666.77
2018-11-21T23:07:15.970Z,100667.41
2018-11-21T23:12:19.605Z,100669.59
2018-11-21T23:17:23.083Z,100677.13
2018-11-21T23:22:32.403Z,100671.43
2018-11-21T23:27:30.253Z,100677.58
2018-11-21T23:32:33.741Z,100678.74
2018-11-21T23:37:37.465Z,100670.84
2018-11-21T23:42:42.135Z,100669.98
2018-11-21T23:47:46.210Z,100678.06
2018-11-21T23:52:49.722Z,100678.06
2018-11-21T23:57:53.307Z,100680.27
